createdAt,value
2017-12-12T00:00:04.722Z,18.66
2017-12-12T00:01:04.708Z,18.60
2017-12-12T00:02:04.692Z,18.68
2017-12-12T00:03:04.677Z,18.70
2017-12-12T00:04:04.663Z,18.68
2017-12-12T00:05:04.649Z,18.65
2017-12-12T00:06:04.633Z,18.68
2017-12-12T00:07:04.617Z,18.59
2017-12-12T00:08:04.603Z,18.65
2017-12-12T00:09:04.588Z,18.62
2017-12-12T00:10:04.573Z,18.71
2017-12-12T00:11:04.557Z,18.66
2017-12-12T00:12:04.543Z,18.63
2017-12-12T00:13:04.527Z,18.65
2017-12-12T00:14:04.512Z,18.66
2017-12-12T00:15:04.498Z,18.60
2017-12-12T00:16:04.482Z,18.60
2017-12-12T00:17:04.467Z,18.62
2017-12-12T00:18:04.452Z,18.60
2017-12-12T00:19:04.438Z,18.52
2017-12-12T00:20:04.421Z,18.66
2017-12-12T00:21:04.407Z,18.59
2017-12-12T00:22:04.391Z,18.60
2017-12-12T00:23:04.376Z,18.60
2017-12-12T00:24:04.369Z,18.56
2017-12-12T00:25:04.347Z,18.65
2017-12-12T00:26:04.332Z,18.59
2017-12-12T00:27:04.316Z,18.62
2017-12-12T00:28:04.301Z,18.62
2017-12-12T00:29:04.286Z,18.60
2017-12-12T00:30:04.270Z,18.58
2017-12-12T00:31:04.257Z,18.62
2017-12-12T00:32:04.240Z,18.56
2017-12-12T00:33:04.227Z,18.60
2017-12-12T00:34:04.210Z,18.60
2017-12-12T00:35:04.195Z,18.58
2017-12-12T00:36:04.181Z,18.56
2017-12-12T00:37:04.167Z,18.55
2017-12-12T00:38:04.149Z,18.43
2017-12-12T00:39:04.135Z,18.44
2017-12-12T00:40:04.120Z,18.53
2017-12-12T00:41:04.104Z,18.50
2017-12-12T00:42:04.090Z,18.47
2017-12-12T00:43:04.076Z,18.45
2017-12-12T00:44:04.059Z,18.44
2017-12-12T00:45:04.045Z,18.45
2017-12-12T00:46:04.028Z,18.47
2017-12-12T00:47:04.014Z,18.45
2017-12-12T00:48:03.999Z,18.45
2017-12-12T00:49:03.987Z,18.44
2017-12-12T00:50:03.969Z,18.47
2017-12-12T00:51:03.954Z,18.47
2017-12-12T00:52:03.938Z,18.53
2017-12-12T00:53:03.924Z,18.50
2017-12-12T00:54:03.907Z,18.53
2017-12-12T00:55:03.893Z,18.45
2017-12-12T00:56:03.879Z,18.44
2017-12-12T00:57:03.864Z,18.49
2017-12-12T00:58:03.848Z,18.41
2017-12-12T00:59:03.833Z,18.50
2017-12-12T01:00:03.818Z,18.45
2017-12-12T01:01:03.804Z,18.44
2017-12-12T01:02:03.788Z,18.41
2017-12-12T01:03:03.773Z,18.43
2017-12-12T01:04:03.757Z,18.47
2017-12-12T01:05:03.741Z,18.43
2017-12-12T01:06:03.727Z,18.56
2017-12-12T01:07:03.711Z,18.49
2017-12-12T01:08:03.697Z,18.43
2017-12-12T01:09:03.683Z,18.47
2017-12-12T01:10:03.666Z,18.47
2017-12-12T01:11:03.652Z,18.38
2017-12-12T01:12:03.636Z,18.49
2017-12-12T01:13:03.622Z,18.40
2017-12-12T01:14:03.606Z,18.45
2017-12-12T01:15:03.591Z,18.43
2017-12-12T01:16:03.576Z,18.38
2017-12-12T01:17:03.561Z,18.37
2017-12-12T01:18:03.544Z,18.31
2017-12-12T01:19:03.529Z,18.35
2017-12-12T01:20:03.515Z,18.35
2017-12-12T01:21:03.500Z,18.26
2017-12-12T01:22:03.485Z,18.37
2017-12-12T01:23:03.470Z,18.34
2017-12-12T01:24:03.454Z,18.37
2017-12-12T01:25:03.449Z,18.34
2017-12-12T01:26:03.424Z,18.40
2017-12-12T01:27:03.408Z,18.34
2017-12-12T01:28:03.394Z,18.31
2017-12-12T01:29:03.379Z,18.29
2017-12-12T01:30:03.363Z,18.37
2017-12-12T01:31:03.348Z,18.35
2017-12-12T01:32:03.332Z,18.31
2017-12-12T01:33:03.317Z,18.34
2017-12-12T01:34:03.301Z,18.26
2017-12-12T01:35:03.286Z,18.29
2017-12-12T01:36:03.271Z,18.31
2017-12-12T01:37:03.259Z,18.33
2017-12-12T01:38:03.241Z,18.29
2017-12-12T01:39:03.226Z,18.31
2017-12-12T01:40:03.214Z,18.41
2017-12-12T01:41:03.202Z,18.35
2017-12-12T01:42:03.180Z,18.29
2017-12-12T01:43:03.164Z,18.34
2017-12-12T01:44:03.150Z,18.31
2017-12-12T01:45:03.140Z,18.33
2017-12-12T01:46:03.119Z,18.28
2017-12-12T01:47:03.105Z,18.34
2017-12-12T01:48:03.088Z,18.31
2017-12-12T01:49:03.074Z,18.33
2017-12-12T01:50:03.057Z,18.34
2017-12-12T01:51:03.043Z,18.26
2017-12-12T01:52:03.027Z,18.28
2017-12-12T01:53:03.012Z,18.23
2017-12-12T01:54:03.000Z,18.31
2017-12-12T01:55:02.986Z,18.28
2017-12-12T01:56:02.966Z,18.31
2017-12-12T01:57:02.953Z,18.26
2017-12-12T01:58:02.936Z,18.18
2017-12-12T01:59:02.921Z,18.25
2017-12-12T02:00:02.906Z,18.25
2017-12-12T02:01:02.891Z,18.23
2017-12-12T02:02:02.874Z,18.20
2017-12-12T02:03:02.859Z,18.22
2017-12-12T02:04:02.845Z,18.20
2017-12-12T02:05:02.830Z,18.25
2017-12-12T02:06:02.813Z,18.20
2017-12-12T02:07:02.799Z,18.23
2017-12-12T02:08:02.783Z,18.22
2017-12-12T02:09:02.769Z,18.16
2017-12-12T02:10:02.751Z,18.23
2017-12-12T02:11:02.738Z,18.23
2017-12-12T02:12:02.723Z,18.15
2017-12-12T02:13:02.708Z,18.11
2017-12-12T02:14:02.690Z,18.18
2017-12-12T02:15:02.677Z,18.18
2017-12-12T02:16:02.664Z,18.19
2017-12-12T02:17:02.646Z,18.20
2017-12-12T02:18:02.628Z,18.16
2017-12-12T02:19:02.616Z,18.18
2017-12-12T02:20:02.600Z,18.15
2017-12-12T02:21:02.584Z,18.23
2017-12-12T02:22:02.568Z,18.19
2017-12-12T02:23:02.552Z,18.15
2017-12-12T02:24:02.541Z,18.20
2017-12-12T02:25:02.523Z,18.19
2017-12-12T02:26:02.506Z,18.18
2017-12-12T02:27:02.491Z,18.16
2017-12-12T02:28:02.476Z,18.20
2017-12-12T02:29:02.461Z,18.20
2017-12-12T02:30:02.445Z,18.19
2017-12-12T02:31:02.430Z,18.19
2017-12-12T02:32:02.424Z,18.11
2017-12-12T02:33:02.413Z,18.15
2017-12-12T02:34:02.385Z,18.11
2017-12-12T02:35:02.369Z,18.18
2017-12-12T02:36:02.354Z,18.13
2017-12-12T02:37:02.341Z,18.15
2017-12-12T02:38:02.322Z,18.13
2017-12-12T02:39:02.306Z,18.19
2017-12-12T02:40:02.301Z,18.15
2017-12-12T02:41:02.278Z,18.15
2017-12-12T02:42:02.265Z,18.08
2017-12-12T02:43:02.246Z,18.13
2017-12-12T02:44:02.230Z,18.15
2017-12-12T02:45:02.215Z,18.11
2017-12-12T02:46:02.198Z,18.11
2017-12-12T02:47:02.185Z,18.08
2017-12-12T02:48:02.169Z,18.08
2017-12-12T02:49:02.154Z,18.16
2017-12-12T02:50:02.138Z,18.08
2017-12-12T02:51:02.122Z,18.05
2017-12-12T02:52:02.109Z,18.05
2017-12-12T02:53:02.094Z,18.03
2017-12-12T02:54:02.076Z,18.04
2017-12-12T02:55:02.061Z,18.07
2017-12-12T02:56:02.046Z,18.13
2017-12-12T02:57:02.032Z,18.00
2017-12-12T02:58:02.016Z,18.08
2017-12-12T02:59:01.999Z,18.10
2017-12-12T03:00:01.983Z,18.03
2017-12-12T03:01:01.968Z,18.07
2017-12-12T03:02:01.959Z,18.08
2017-12-12T03:03:01.937Z,18.01
2017-12-12T03:04:01.924Z,18.05
2017-12-12T03:05:01.907Z,18.04
2017-12-12T03:06:01.890Z,18.07
2017-12-12T03:07:01.875Z,18.07
2017-12-12T03:08:01.861Z,18.08
2017-12-12T03:09:01.845Z,18.01
2017-12-12T03:10:01.829Z,18.08
2017-12-12T03:11:01.863Z,18.15
2017-12-12T03:12:01.798Z,18.10
2017-12-12T03:13:01.783Z,18.08
2017-12-12T03:14:01.767Z,18.08
2017-12-12T03:15:01.752Z,18.03
2017-12-12T03:16:01.737Z,18.07
2017-12-12T03:17:01.722Z,18.03
2017-12-12T03:18:01.706Z,18.05
2017-12-12T03:19:01.691Z,18.03
2017-12-12T03:20:01.676Z,18.03
2017-12-12T03:21:01.660Z,18.00
2017-12-12T03:22:01.644Z,18.04
2017-12-12T03:23:01.629Z,18.10
2017-12-12T03:24:01.614Z,18.08
2017-12-12T03:25:01.599Z,18.04
2017-12-12T03:26:01.581Z,18.03
2017-12-12T03:27:01.567Z,18.01
2017-12-12T03:28:01.551Z,17.98
2017-12-12T03:29:01.536Z,17.97
2017-12-12T03:30:01.522Z,17.94
2017-12-12T03:31:01.506Z,17.95
2017-12-12T03:32:01.495Z,18.03
2017-12-12T03:33:01.474Z,18.03
2017-12-12T03:34:01.459Z,18.03
2017-12-12T03:35:01.444Z,17.95
2017-12-12T03:36:01.427Z,17.92
2017-12-12T03:37:01.413Z,17.95
2017-12-12T03:38:01.395Z,17.98
2017-12-12T03:39:01.380Z,17.98
2017-12-12T03:40:01.365Z,17.87
2017-12-12T03:41:01.351Z,17.97
2017-12-12T03:42:01.333Z,18.00
2017-12-12T03:43:01.320Z,17.89
2017-12-12T03:44:01.303Z,17.90
2017-12-12T03:45:01.288Z,17.95
2017-12-12T03:46:01.273Z,17.98
2017-12-12T03:47:01.256Z,18.00
2017-12-12T03:48:01.243Z,17.94
2017-12-12T03:49:01.226Z,18.05
2017-12-12T03:50:01.212Z,18.04
2017-12-12T03:51:01.201Z,17.98
2017-12-12T03:52:01.179Z,18.05
2017-12-12T03:53:01.165Z,18.05
2017-12-12T03:54:01.148Z,18.15
2017-12-12T03:55:01.133Z,18.13
2017-12-12T03:56:01.117Z,18.13
2017-12-12T03:57:01.105Z,18.15
2017-12-12T03:58:01.105Z,18.15
2017-12-12T03:59:01.070Z,18.16
2017-12-12T04:00:01.056Z,18.18
2017-12-12T04:01:01.040Z,18.15
2017-12-12T04:02:01.023Z,18.19
2017-12-12T04:03:01.009Z,18.20
2017-12-12T04:04:00.992Z,18.23
2017-12-12T04:05:00.978Z,18.23
2017-12-12T04:06:00.962Z,18.26
2017-12-12T04:07:00.950Z,18.29
2017-12-12T04:08:00.930Z,18.28
2017-12-12T04:09:00.914Z,18.34
2017-12-12T04:10:00.898Z,18.43
2017-12-12T04:11:00.884Z,18.29
2017-12-12T04:12:00.871Z,18.31
2017-12-12T04:13:00.854Z,18.37
2017-12-12T04:14:00.837Z,18.49
2017-12-12T04:15:00.825Z,18.52
2017-12-12T04:16:00.806Z,18.62
2017-12-12T04:17:00.792Z,18.81
2017-12-12T04:18:00.775Z,18.96
2017-12-12T04:19:00.761Z,19.07
2017-12-12T04:20:00.748Z,19.12
2017-12-12T04:21:00.729Z,19.14
2017-12-12T04:22:00.713Z,19.22
2017-12-12T04:23:00.697Z,19.18
2017-12-12T04:24:00.685Z,19.24
2017-12-12T04:25:00.668Z,19.27
2017-12-12T04:26:00.651Z,19.30
2017-12-12T04:27:00.636Z,19.41
2017-12-12T04:28:00.621Z,19.39
2017-12-12T04:29:00.606Z,19.26
2017-12-12T04:30:00.590Z,19.39
2017-12-12T04:31:00.574Z,19.52
2017-12-12T04:32:00.561Z,19.59
2017-12-12T04:33:00.544Z,19.52
2017-12-12T04:34:00.529Z,19.69
2017-12-12T04:35:00.514Z,19.59
2017-12-12T04:36:00.498Z,19.56
2017-12-12T04:37:00.484Z,19.58
2017-12-12T04:38:00.469Z,19.56
2017-12-12T04:39:00.452Z,19.51
2017-12-12T04:40:00.437Z,19.39
2017-12-12T04:41:00.422Z,19.45
2017-12-12T04:42:00.410Z,19.39
2017-12-12T04:43:00.392Z,19.40
2017-12-12T04:44:00.378Z,19.58
2017-12-12T04:45:00.363Z,19.62
2017-12-12T04:46:00.347Z,19.67
2017-12-12T04:47:00.330Z,19.55
2017-12-12T04:48:00.316Z,19.56
2017-12-12T04:49:00.302Z,19.76
2017-12-12T04:50:00.286Z,19.67
2017-12-12T04:51:00.270Z,19.66
2017-12-12T04:52:00.255Z,19.62
2017-12-12T04:53:00.241Z,19.58
2017-12-12T04:54:00.225Z,19.58
2017-12-12T04:55:00.211Z,19.51
2017-12-12T04:56:00.196Z,19.59
2017-12-12T04:57:00.181Z,19.59
2017-12-12T04:58:00.164Z,19.62
2017-12-12T04:59:00.151Z,19.64
2017-12-12T05:00:00.135Z,19.56
2017-12-12T05:01:00.119Z,19.64
2017-12-12T05:02:00.105Z,19.58
2017-12-12T05:03:00.091Z,19.56
2017-12-12T05:04:00.074Z,19.59
2017-12-12T05:05:00.061Z,19.64
2017-12-12T05:06:00.045Z,19.59
2017-12-12T05:07:00.030Z,19.70
2017-12-12T05:08:00.015Z,19.64
2017-12-12T05:09:00.000Z,19.59
2017-12-12T05:09:59.984Z,19.59
2017-12-12T05:10:59.970Z,19.67
2017-12-12T05:11:59.955Z,19.74
2017-12-12T05:12:59.939Z,19.69
2017-12-12T05:13:59.925Z,19.73
2017-12-12T05:14:59.909Z,19.66
2017-12-12T05:15:59.894Z,19.71
2017-12-12T05:16:59.880Z,19.69
2017-12-12T05:17:59.863Z,19.58
2017-12-12T05:18:59.848Z,19.64
2017-12-12T05:19:59.834Z,19.64
2017-12-12T05:20:59.820Z,19.73
2017-12-12T05:21:59.803Z,19.63
2017-12-12T05:22:59.790Z,19.69
2017-12-12T05:23:59.774Z,19.70
2017-12-12T05:24:59.760Z,19.69
2017-12-12T05:25:59.743Z,19.64
2017-12-12T05:26:59.728Z,19.63
2017-12-12T05:27:59.715Z,19.81
2017-12-12T05:28:59.700Z,19.76
2017-12-12T05:29:59.683Z,19.70
2017-12-12T05:30:59.670Z,19.62
2017-12-12T05:31:59.658Z,19.81
2017-12-12T05:32:59.639Z,19.79
2017-12-12T05:33:59.625Z,19.76
2017-12-12T05:34:59.610Z,19.74
2017-12-12T05:35:59.594Z,19.70
2017-12-12T05:36:59.579Z,19.82
2017-12-12T05:37:59.563Z,19.85
2017-12-12T05:38:59.549Z,19.71
2017-12-12T05:39:59.534Z,19.76
2017-12-12T05:40:59.520Z,19.88
2017-12-12T05:41:59.504Z,19.71
2017-12-12T05:42:59.489Z,19.63
2017-12-12T05:43:59.475Z,19.58
2017-12-12T05:44:59.460Z,19.56
2017-12-12T05:45:59.444Z,19.58
2017-12-12T05:46:59.430Z,19.36
2017-12-12T05:47:59.416Z,19.39
2017-12-12T05:48:59.400Z,19.45
2017-12-12T05:49:59.384Z,19.52
2017-12-12T05:50:59.370Z,19.48
2017-12-12T05:51:59.355Z,19.47
2017-12-12T05:52:59.340Z,19.41
2017-12-12T05:53:59.324Z,19.48
2017-12-12T05:54:59.311Z,19.55
2017-12-12T05:55:59.294Z,19.49
2017-12-12T05:56:59.281Z,19.54
2017-12-12T05:57:59.264Z,19.58
2017-12-12T05:58:59.251Z,19.49
2017-12-12T05:59:59.235Z,19.59
2017-12-12T06:00:59.221Z,19.54
2017-12-12T06:02:59.190Z,19.49
2017-12-12T06:03:59.180Z,19.49
2017-12-12T06:04:59.162Z,19.47
2017-12-12T06:05:59.145Z,19.52
2017-12-12T06:06:59.130Z,19.51
2017-12-12T06:07:59.115Z,19.44
2017-12-12T06:08:59.104Z,19.40
2017-12-12T06:09:59.086Z,19.45
2017-12-12T06:10:59.072Z,19.51
2017-12-12T06:11:59.056Z,19.48
2017-12-12T06:12:59.042Z,19.48
2017-12-12T06:13:59.026Z,19.49
2017-12-12T06:14:59.011Z,19.41
2017-12-12T06:15:59.011Z,19.41
2017-12-12T06:16:58.981Z,19.39
2017-12-12T06:17:58.968Z,19.45
2017-12-12T06:18:58.951Z,19.41
2017-12-12T06:19:58.940Z,19.37
2017-12-12T06:20:58.921Z,19.49
2017-12-12T06:21:58.907Z,19.51
2017-12-12T06:22:58.891Z,19.41
2017-12-12T06:23:58.878Z,19.39
2017-12-12T06:24:58.862Z,19.52
2017-12-12T06:25:58.847Z,19.49
2017-12-12T06:26:58.831Z,19.41
2017-12-12T06:27:58.817Z,19.52
2017-12-12T06:28:58.802Z,19.51
2017-12-12T06:29:58.787Z,19.44
2017-12-12T06:30:58.771Z,19.54
2017-12-12T06:31:58.758Z,19.54
2017-12-12T06:32:58.743Z,19.51
2017-12-12T06:33:58.727Z,19.54
2017-12-12T06:34:58.714Z,19.51
2017-12-12T06:35:58.698Z,19.51
2017-12-12T06:36:58.683Z,19.48
2017-12-12T06:37:58.668Z,19.39
2017-12-12T06:38:58.653Z,19.44
2017-12-12T06:39:58.637Z,19.49
2017-12-12T06:40:58.624Z,19.49
2017-12-12T06:41:58.607Z,19.52
2017-12-12T06:42:58.592Z,19.45
2017-12-12T06:43:58.577Z,19.47
2017-12-12T06:44:58.564Z,19.45
2017-12-12T06:45:58.549Z,19.39
2017-12-12T06:46:58.534Z,19.37
2017-12-12T06:47:58.518Z,19.41
2017-12-12T06:48:58.507Z,19.40
2017-12-12T06:49:58.488Z,19.41
2017-12-12T06:50:58.473Z,19.31
2017-12-12T06:51:58.459Z,19.31
2017-12-12T06:52:58.444Z,19.41
2017-12-12T06:53:58.430Z,19.34
2017-12-12T06:54:58.414Z,19.33
2017-12-12T06:55:58.400Z,19.26
2017-12-12T06:56:58.385Z,19.21
2017-12-12T06:57:58.369Z,19.22
2017-12-12T06:58:58.355Z,19.19
2017-12-12T06:59:58.340Z,19.18
2017-12-12T07:00:58.326Z,19.14
2017-12-12T07:01:58.309Z,19.12
2017-12-12T07:02:58.294Z,19.14
2017-12-12T07:03:58.280Z,19.16
2017-12-12T07:04:58.265Z,19.16
2017-12-12T07:05:58.249Z,19.16
2017-12-12T07:06:58.235Z,19.19
2017-12-12T07:07:58.220Z,19.15
2017-12-12T07:08:58.205Z,19.15
2017-12-12T07:09:58.190Z,19.18
2017-12-12T07:10:58.174Z,19.08
2017-12-12T07:11:58.160Z,19.09
2017-12-12T07:12:58.145Z,19.11
2017-12-12T07:13:58.130Z,19.16
2017-12-12T07:14:58.114Z,19.09
2017-12-12T07:15:58.099Z,19.15
2017-12-12T07:16:58.084Z,19.12
2017-12-12T07:17:58.068Z,19.14
2017-12-12T07:18:58.054Z,19.12
2017-12-12T07:19:58.039Z,19.15
2017-12-12T07:20:58.030Z,19.16
2017-12-12T07:21:58.009Z,19.09
2017-12-12T07:22:57.995Z,19.18
2017-12-12T07:23:57.980Z,19.14
2017-12-12T07:24:57.964Z,19.21
2017-12-12T07:25:57.948Z,19.19
2017-12-12T07:26:57.935Z,19.24
2017-12-12T07:27:57.920Z,19.16
2017-12-12T07:28:57.904Z,19.18
2017-12-12T07:29:57.889Z,19.09
2017-12-12T07:30:57.873Z,19.19
2017-12-12T07:31:57.858Z,19.18
2017-12-12T07:32:57.844Z,19.21
2017-12-12T07:33:57.828Z,19.16
2017-12-12T07:34:57.814Z,19.16
2017-12-12T07:35:57.797Z,19.19
2017-12-12T07:36:57.783Z,19.21
2017-12-12T07:37:57.767Z,19.16
2017-12-12T07:38:57.752Z,19.22
2017-12-12T07:39:57.738Z,19.29
2017-12-12T07:40:57.723Z,19.21
2017-12-12T07:41:57.707Z,19.29
2017-12-12T07:42:57.692Z,19.18
2017-12-12T07:43:57.677Z,19.26
2017-12-12T07:44:57.662Z,19.24
2017-12-12T07:45:57.645Z,19.26
2017-12-12T07:46:57.632Z,19.33
2017-12-12T07:47:57.617Z,19.21
2017-12-12T07:48:57.602Z,19.27
2017-12-12T07:49:57.585Z,19.26
2017-12-12T07:50:57.571Z,19.30
2017-12-12T07:51:57.556Z,19.29
2017-12-12T07:52:57.551Z,19.34
2017-12-12T07:53:57.526Z,19.33
2017-12-12T07:54:57.511Z,19.37
2017-12-12T07:55:57.495Z,19.40
2017-12-12T07:56:57.483Z,19.40
2017-12-12T07:57:57.464Z,19.29
2017-12-12T07:58:57.450Z,19.39
2017-12-12T07:59:57.442Z,19.41
2017-12-12T08:00:57.419Z,19.41
2017-12-12T08:01:57.404Z,19.44
2017-12-12T08:02:57.389Z,19.44
2017-12-12T08:03:57.375Z,19.41
2017-12-12T08:04:57.359Z,19.40
2017-12-12T08:05:57.345Z,19.45
2017-12-12T08:06:57.335Z,19.45
2017-12-12T08:07:57.315Z,19.34
2017-12-12T08:08:57.355Z,19.41
2017-12-12T08:09:57.284Z,19.40
2017-12-12T08:10:57.268Z,19.40
2017-12-12T08:11:57.707Z,19.44
2017-12-12T08:12:57.239Z,19.45
2017-12-12T08:13:57.223Z,19.41
2017-12-12T08:14:57.209Z,19.45
2017-12-12T08:15:57.195Z,19.40
2017-12-12T08:16:57.182Z,19.37
2017-12-12T08:17:57.163Z,19.31
2017-12-12T08:18:57.149Z,19.41
2017-12-12T08:19:57.135Z,19.40
2017-12-12T08:20:57.119Z,19.45
2017-12-12T08:21:57.103Z,19.39
2017-12-12T08:22:57.088Z,19.36
2017-12-12T08:23:57.073Z,19.41
2017-12-12T08:24:57.060Z,19.44
2017-12-12T08:25:57.044Z,19.45
2017-12-12T08:26:57.029Z,19.39
2017-12-12T08:27:57.014Z,19.52
2017-12-12T08:28:57.002Z,19.41
2017-12-12T08:29:56.984Z,19.44
2017-12-12T08:30:56.972Z,19.40
2017-12-12T08:31:56.953Z,19.49
2017-12-12T08:32:56.939Z,19.45
2017-12-12T08:33:56.923Z,19.39
2017-12-12T08:34:56.909Z,19.34
2017-12-12T08:35:56.894Z,19.45
2017-12-12T08:36:56.879Z,19.39
2017-12-12T08:37:56.863Z,19.33
2017-12-12T08:38:56.847Z,19.41
2017-12-12T08:39:56.837Z,19.44
2017-12-12T08:40:56.819Z,19.29
2017-12-12T08:41:56.803Z,19.34
2017-12-12T08:42:56.788Z,19.37
2017-12-12T08:43:56.772Z,19.37
2017-12-12T08:44:56.758Z,19.36
2017-12-12T08:45:56.745Z,19.39
2017-12-12T08:46:56.727Z,19.45
2017-12-12T08:47:56.713Z,19.45
2017-12-12T08:48:56.698Z,19.31
2017-12-12T08:49:56.685Z,19.39
2017-12-12T08:50:56.666Z,19.41
2017-12-12T08:51:56.651Z,19.41
2017-12-12T08:52:56.638Z,19.34
2017-12-12T08:53:56.622Z,19.40
2017-12-12T08:54:56.607Z,19.39
2017-12-12T08:55:56.592Z,19.37
2017-12-12T08:56:56.577Z,19.41
2017-12-12T08:57:56.561Z,19.31
2017-12-12T08:58:56.545Z,19.37
2017-12-12T08:59:56.532Z,19.34
2017-12-12T09:00:56.518Z,19.37
2017-12-12T09:01:56.501Z,19.44
2017-12-12T09:02:56.486Z,19.39
2017-12-12T09:03:56.472Z,19.29
2017-12-12T09:04:56.457Z,19.41
2017-12-12T09:05:56.440Z,19.39
2017-12-12T09:06:56.427Z,19.52
2017-12-12T09:07:56.411Z,19.59
2017-12-12T09:08:56.397Z,19.73
2017-12-12T09:09:56.381Z,19.79
2017-12-12T09:10:56.366Z,19.84
2017-12-12T09:11:56.358Z,19.94
2017-12-12T09:12:57.990Z,20.09
2017-12-12T09:13:56.321Z,20.09
2017-12-12T09:14:56.309Z,20.22
2017-12-12T09:15:56.292Z,20.28
2017-12-12T09:16:56.278Z,20.32
2017-12-12T09:17:56.262Z,20.50
2017-12-12T09:18:56.253Z,20.56
2017-12-12T09:19:56.235Z,20.63
2017-12-12T09:20:56.224Z,20.77
2017-12-12T09:21:56.205Z,20.74
2017-12-12T09:22:56.191Z,20.87
2017-12-12T09:23:56.177Z,20.92
2017-12-12T09:24:56.163Z,20.93
2017-12-12T09:25:56.150Z,20.95
2017-12-12T09:26:56.136Z,21.07
2017-12-12T09:27:56.121Z,21.25
2017-12-12T09:28:56.107Z,21.21
2017-12-12T09:29:56.095Z,21.30
2017-12-12T09:30:56.081Z,21.24
2017-12-12T09:31:56.066Z,21.35
2017-12-12T09:32:56.055Z,21.39
2017-12-12T09:33:56.046Z,21.46
2017-12-12T09:34:56.025Z,21.46
2017-12-12T09:35:56.021Z,21.58
2017-12-12T09:36:56.000Z,21.62
2017-12-12T09:37:55.988Z,21.67
2017-12-12T09:38:55.973Z,21.75
2017-12-12T09:39:55.959Z,21.82
2017-12-12T09:40:55.947Z,21.83
2017-12-12T09:41:55.933Z,21.88
2017-12-12T09:42:55.927Z,21.75
2017-12-12T09:43:55.907Z,21.61
2017-12-12T09:44:55.893Z,21.66
2017-12-12T09:45:55.881Z,21.58
2017-12-12T09:46:55.867Z,21.54
2017-12-12T09:47:55.855Z,21.50
2017-12-12T09:48:55.841Z,21.45
2017-12-12T09:49:55.828Z,21.39
2017-12-12T09:50:55.818Z,21.43
2017-12-12T09:51:55.802Z,21.37
2017-12-12T09:52:55.789Z,21.27
2017-12-12T09:53:55.774Z,21.33
2017-12-12T09:54:55.762Z,21.45
2017-12-12T09:55:55.749Z,21.43
2017-12-12T09:56:55.735Z,21.42
2017-12-12T09:57:55.722Z,21.35
2017-12-12T09:58:55.709Z,21.33
2017-12-12T09:59:55.696Z,21.33
2017-12-12T10:00:55.684Z,21.27
2017-12-12T10:01:55.669Z,21.21
2017-12-12T10:02:55.655Z,21.22
2017-12-12T10:03:55.642Z,21.27
2017-12-12T10:04:55.630Z,21.29
2017-12-12T10:05:55.615Z,21.37
2017-12-12T10:06:55.601Z,21.37
2017-12-12T10:07:55.589Z,21.42
2017-12-12T10:08:55.576Z,21.36
2017-12-12T10:09:55.560Z,21.30
2017-12-12T10:10:55.548Z,21.33
2017-12-12T10:11:55.534Z,21.29
2017-12-12T10:12:55.523Z,21.40
2017-12-12T10:13:55.524Z,21.52
2017-12-12T10:14:55.495Z,21.43
2017-12-12T10:15:55.481Z,21.46
2017-12-12T10:16:55.469Z,21.57
2017-12-12T10:17:55.454Z,21.62
2017-12-12T10:18:55.441Z,21.46
2017-12-12T10:19:55.428Z,21.42
2017-12-12T10:20:55.416Z,21.54
2017-12-12T10:21:55.402Z,21.67
2017-12-12T10:22:55.388Z,21.70
2017-12-12T10:23:55.374Z,21.69
2017-12-12T10:24:55.363Z,21.62
2017-12-12T10:25:55.350Z,21.70
2017-12-12T10:26:55.335Z,21.85
2017-12-12T10:27:55.324Z,21.95
2017-12-12T10:28:55.311Z,21.91
2017-12-12T10:29:55.298Z,22.00
2017-12-12T10:30:55.286Z,22.06
2017-12-12T10:31:55.272Z,22.00
2017-12-12T10:32:55.259Z,21.99
2017-12-12T10:33:55.246Z,21.92
2017-12-12T10:34:55.233Z,21.92
2017-12-12T10:35:55.221Z,21.92
2017-12-12T10:36:55.211Z,21.99
2017-12-12T10:37:55.195Z,22.00
2017-12-12T10:38:55.185Z,22.13
2017-12-12T10:39:55.172Z,22.17
2017-12-12T10:40:55.160Z,22.20
2017-12-12T10:41:55.150Z,22.28
2017-12-12T10:42:55.134Z,22.29
2017-12-12T10:43:55.123Z,22.44
2017-12-12T10:44:55.111Z,22.53
2017-12-12T10:45:55.101Z,22.44
2017-12-12T10:46:55.085Z,22.29
2017-12-12T10:47:55.074Z,22.29
2017-12-12T10:48:55.064Z,22.28
2017-12-12T10:49:55.053Z,22.22
2017-12-12T10:50:55.037Z,22.14
2017-12-12T10:51:55.025Z,22.06
2017-12-12T10:52:55.014Z,22.00
2017-12-12T10:53:55.002Z,22.04
2017-12-12T10:54:54.990Z,21.98
2017-12-12T10:55:54.978Z,21.88
2017-12-12T10:56:54.967Z,21.92
2017-12-12T10:57:54.952Z,21.88
2017-12-12T10:58:54.941Z,21.83
2017-12-12T10:59:54.927Z,21.91
2017-12-12T11:00:54.917Z,21.80
2017-12-12T11:01:54.902Z,21.89
2017-12-12T11:02:54.890Z,21.83
2017-12-12T11:03:54.879Z,21.89
2017-12-12T11:04:54.867Z,21.95
2017-12-12T11:05:54.852Z,21.98
2017-12-12T11:06:54.841Z,22.07
2017-12-12T11:07:54.829Z,22.14
2017-12-12T11:08:54.815Z,22.25
2017-12-12T11:09:54.845Z,22.13
2017-12-12T11:10:54.791Z,22.17
2017-12-12T11:11:54.780Z,22.15
2017-12-12T11:12:54.766Z,22.25
2017-12-12T11:13:54.752Z,22.23
2017-12-12T11:14:54.741Z,22.29
2017-12-12T11:15:54.729Z,22.38
2017-12-12T11:16:54.716Z,22.45
2017-12-12T11:17:54.703Z,22.50
2017-12-12T11:18:54.693Z,22.57
2017-12-12T11:19:54.680Z,22.57
2017-12-12T11:20:54.672Z,22.65
2017-12-12T11:21:54.655Z,22.66
2017-12-12T11:22:54.644Z,22.73
2017-12-12T11:23:54.633Z,22.75
2017-12-12T11:24:54.623Z,22.75
2017-12-12T11:25:54.608Z,22.78
2017-12-12T11:26:54.598Z,22.70
2017-12-12T11:27:54.586Z,22.55
2017-12-12T11:28:54.575Z,22.65
2017-12-12T11:29:54.563Z,22.48
2017-12-12T11:30:54.551Z,22.48
2017-12-12T11:31:54.540Z,22.43
2017-12-12T11:32:54.528Z,22.33
2017-12-12T11:33:54.515Z,22.26
2017-12-12T11:34:54.504Z,22.29
2017-12-12T11:35:54.492Z,22.29
2017-12-12T11:36:54.480Z,22.38
2017-12-12T11:37:54.468Z,22.51
2017-12-12T11:38:54.456Z,22.62
2017-12-12T11:39:54.444Z,22.54
2017-12-12T11:40:54.434Z,22.65
2017-12-12T11:41:54.421Z,22.59
2017-12-12T11:42:54.410Z,22.69
2017-12-12T11:43:54.399Z,22.73
2017-12-12T11:44:54.386Z,22.83
2017-12-12T11:45:54.374Z,22.83
2017-12-12T11:46:54.363Z,22.81
2017-12-12T11:47:54.352Z,22.85
2017-12-12T11:48:54.340Z,22.94
2017-12-12T11:49:54.329Z,22.99
2017-12-12T11:50:54.317Z,22.88
2017-12-12T11:51:54.306Z,22.96
2017-12-12T11:52:54.295Z,22.98
2017-12-12T11:53:54.284Z,22.93
2017-12-12T11:54:54.271Z,22.88
2017-12-12T11:55:54.261Z,22.78
2017-12-12T11:56:54.251Z,22.72
2017-12-12T11:57:54.237Z,22.68
2017-12-12T11:58:54.226Z,22.59
2017-12-12T11:59:54.216Z,22.62
2017-12-12T12:00:54.204Z,22.72
2017-12-12T12:01:54.193Z,22.73
2017-12-12T12:02:54.182Z,22.81
2017-12-12T12:03:54.170Z,22.91
2017-12-12T12:04:54.166Z,22.96
2017-12-12T12:05:54.147Z,22.99
2017-12-12T12:06:54.136Z,23.05
2017-12-12T12:07:54.124Z,23.03
2017-12-12T12:08:54.117Z,23.06
2017-12-12T12:09:54.102Z,23.12
2017-12-12T12:10:54.091Z,23.15
2017-12-12T12:11:54.080Z,23.12
2017-12-12T12:12:54.070Z,23.12
2017-12-12T12:13:54.057Z,23.23
2017-12-12T12:14:54.047Z,23.21
2017-12-12T12:15:54.035Z,23.32
2017-12-12T12:16:54.025Z,23.31
2017-12-12T12:17:54.012Z,23.32
2017-12-12T12:18:54.002Z,23.39
2017-12-12T12:19:53.995Z,23.36
2017-12-12T12:20:53.980Z,23.40
2017-12-12T12:21:53.969Z,23.47
2017-12-12T12:22:53.958Z,23.44
2017-12-12T12:23:53.949Z,23.46
2017-12-12T12:24:53.938Z,23.31
2017-12-12T12:25:53.926Z,23.34
2017-12-12T12:26:53.915Z,23.36
2017-12-12T12:27:53.904Z,23.32
2017-12-12T12:28:53.894Z,23.41
2017-12-12T12:29:53.882Z,23.50
2017-12-12T12:30:53.872Z,23.47
2017-12-12T12:31:53.862Z,23.56
2017-12-12T12:32:53.851Z,23.46
2017-12-12T12:33:53.840Z,23.37
2017-12-12T12:34:53.829Z,23.36
2017-12-12T12:35:53.820Z,23.28
2017-12-12T12:36:53.810Z,23.39
2017-12-12T12:37:53.797Z,23.37
2017-12-12T12:38:53.787Z,23.50
2017-12-12T12:39:53.778Z,23.43
2017-12-12T12:40:53.766Z,23.48
2017-12-12T12:41:53.754Z,23.39
2017-12-12T12:42:53.744Z,23.32
2017-12-12T12:43:53.734Z,23.25
2017-12-12T12:44:53.722Z,23.10
2017-12-12T12:45:53.710Z,23.20
2017-12-12T12:46:53.700Z,23.08
2017-12-12T12:47:53.691Z,23.09
2017-12-12T12:48:53.678Z,23.03
2017-12-12T12:49:53.667Z,23.02
2017-12-12T12:50:53.657Z,22.94
2017-12-12T12:51:53.647Z,22.90
2017-12-12T12:52:53.635Z,22.93